createdAt,value
2019-02-07T00:01:55.726Z,99.70
2019-02-07T00:04:25.472Z,99.40
2019-02-07T00:06:55.152Z,99.60
2019-02-07T00:09:24.943Z,99.50
2019-02-07T00:11:54.570Z,99.70
2019-02-07T00:14:24.198Z,99.70
2019-02-07T00:16:53.858Z,99.90
2019-02-07T00:19:23.623Z,99.90
2019-02-07T00:21:53.154Z,99.90
2019-02-07T00:24:22.701Z,99.90
2019-02-07T00:26:52.255Z,99.90
2019-02-07T00:29:21.893Z,99.90
2019-02-07T00:31:51.403Z,99.90
2019-02-07T00:34:20.891Z,99.90
2019-02-07T00:36:50.623Z,99.90
2019-02-07T00:39:20.571Z,99.90
2019-02-07T00:41:50.136Z,99.90
2019-02-07T00:44:19.706Z,99.90
2019-02-07T00:46:49.826Z,99.90
2019-02-07T00:49:19.399Z,99.90
2019-02-07T00:51:49.118Z,99.90
2019-02-07T00:54:19.648Z,99.90
2019-02-07T00:56:49.692Z,99.90
2019-02-07T00:59:19.319Z,99.90
2019-02-07T01:01:49.422Z,99.90
2019-02-07T01:04:19.062Z,99.90
2019-02-07T01:06:48.626Z,99.90
2019-02-07T01:09:18.229Z,99.90
2019-02-07T01:11:48.025Z,99.90
2019-02-07T01:14:17.726Z,99.90
2019-02-07T01:16:47.584Z,99.90
2019-02-07T01:19:17.211Z,99.90
2019-02-07T01:21:47.148Z,99.90
2019-02-07T01:24:16.807Z,99.90
2019-02-07T01:26:46.378Z,99.90
2019-02-07T01:29:16.043Z,99.90
2019-02-07T01:31:45.571Z,99.90
2019-02-07T01:34:15.066Z,99.90
2019-02-07T01:36:45.638Z,99.90
2019-02-07T01:39:15.378Z,99.90
2019-02-07T01:41:45.066Z,99.90
2019-02-07T01:44:14.705Z,99.90
2019-02-07T01:46:44.301Z,99.90
2019-02-07T01:49:13.870Z,99.90
2019-02-07T01:51:43.910Z,99.90
2019-02-07T01:54:13.627Z,99.90
2019-02-07T01:56:43.132Z,99.90
2019-02-07T01:59:12.782Z,99.90
2019-02-07T02:01:42.375Z,99.90
2019-02-07T02:04:12.015Z,99.90
2019-02-07T02:06:41.690Z,99.90
2019-02-07T02:09:11.650Z,99.90
2019-02-07T02:11:41.296Z,99.90
2019-02-07T02:14:11.010Z,99.90
2019-02-07T02:16:40.907Z,99.90
2019-02-07T02:19:10.549Z,99.90
2019-02-07T02:21:40.116Z,99.90
2019-02-07T02:24:09.774Z,99.90
2019-02-07T02:26:39.342Z,99.90
2019-02-07T02:29:08.847Z,99.90
2019-02-07T02:31:38.587Z,99.90
2019-02-07T02:34:08.095Z,99.90
2019-02-07T02:36:37.726Z,99.90
2019-02-07T02:39:08.599Z,99.90
2019-02-07T02:41:38.234Z,99.90
2019-02-07T02:44:07.880Z,99.90
2019-02-07T02:46:38.502Z,99.90
2019-02-07T02:49:08.631Z,99.90
2019-02-07T02:51:38.271Z,99.90
2019-02-07T02:54:09.638Z,99.90
2019-02-07T02:56:39.199Z,99.90
2019-02-07T02:59:08.906Z,99.90
2019-02-07T03:01:40.138Z,99.90
2019-02-07T03:04:14.449Z,99.90
2019-02-07T03:06:58.102Z,99.90
2019-02-07T03:09:34.535Z,99.90
2019-02-07T03:12:21.833Z,99.90
2019-02-07T03:14:55.541Z,99.90
2019-02-07T03:17:32.878Z,99.90
2019-02-07T03:20:06.737Z,99.90
2019-02-07T03:22:50.026Z,99.90
2019-02-07T03:25:21.154Z,99.90
2019-02-07T03:28:08.444Z,99.90
2019-02-07T03:30:55.678Z,99.90
2019-02-07T03:33:29.984Z,99.90
2019-02-07T03:36:01.264Z,98.90
2019-02-07T03:38:34.791Z,99.30
2019-02-07T03:41:06.426Z,99.10
2019-02-07T03:43:43.372Z,99.80
2019-02-07T03:46:31.274Z,99.90
2019-02-07T03:49:02.555Z,99.90
2019-02-07T03:51:36.476Z,99.90
2019-02-07T03:54:23.909Z,99.90
2019-02-07T03:56:55.505Z,99.90
2019-02-07T03:59:26.778Z,99.90
2019-02-07T04:02:10.003Z,99.90
2019-02-07T04:04:53.222Z,99.90
2019-02-07T04:07:27.503Z,99.90
2019-02-07T04:10:04.541Z,99.90
2019-02-07T04:12:44.830Z,99.90
2019-02-07T04:15:28.971Z,99.90
2019-02-07T04:18:03.317Z,99.90
2019-02-07T04:20:37.381Z,99.90
2019-02-07T04:23:23.778Z,99.90
2019-02-07T04:26:00.897Z,99.90
2019-02-07T04:28:32.463Z,99.90
2019-02-07T04:31:06.313Z,99.90
2019-02-07T04:33:43.759Z,99.90
2019-02-07T04:36:17.725Z,99.90
2019-02-07T04:38:49.219Z,99.90
2019-02-07T04:41:29.779Z,99.90
2019-02-07T04:44:06.920Z,99.90
2019-02-07T04:46:53.411Z,99.90
2019-02-07T04:49:27.601Z,99.90
2019-02-07T04:52:05.371Z,99.90
2019-02-07T04:54:45.575Z,99.90
2019-02-07T04:57:22.671Z,99.90
2019-02-07T04:59:56.741Z,99.90
2019-02-07T05:02:40.100Z,99.90
2019-02-07T05:05:14.287Z,99.90
2019-02-07T05:07:54.408Z,99.90
2019-02-07T05:10:31.571Z,99.90
2019-02-07T05:13:02.839Z,99.90
2019-02-07T05:15:36.802Z,99.90
2019-02-07T05:18:16.838Z,99.90
2019-02-07T05:20:48.068Z,99.90
2019-02-07T05:23:34.139Z,99.90
2019-02-07T05:26:06.628Z,99.90
2019-02-07T05:28:53.808Z,99.90
2019-02-07T05:31:42.719Z,99.90
2019-02-07T05:34:16.695Z,99.90
2019-02-07T05:36:54.442Z,99.90
2019-02-07T05:39:42.043Z,99.90
2019-02-07T05:42:16.424Z,99.90
2019-02-07T05:44:50.570Z,99.70
2019-02-07T05:47:22.450Z,99.20
2019-02-07T05:50:09.575Z,99.40
2019-02-07T05:52:56.835Z,99.50
2019-02-07T05:55:44.034Z,99.30
2019-02-07T05:58:27.281Z,99.50
2019-02-07T06:01:04.652Z,99.20
2019-02-07T06:03:36.274Z,99.00
2019-02-07T06:06:07.731Z,99.10
2019-02-07T06:08:41.825Z,98.70
2019-02-07T06:11:29.727Z,99.20
2019-02-07T06:14:03.647Z,99.40
2019-02-07T06:16:43.809Z,99.00
2019-02-07T06:19:42.207Z,99.30
2019-02-07T06:22:16.335Z,99.20
2019-02-07T06:24:50.260Z,98.80
2019-02-07T06:27:24.494Z,99.00
2019-02-07T06:30:07.709Z,98.70
2019-02-07T06:32:39.033Z,98.80
2019-02-07T06:35:22.690Z,98.70
2019-02-07T06:37:53.933Z,98.50
2019-02-07T06:40:27.850Z,98.30
2019-02-07T06:42:59.078Z,98.00
2019-02-07T06:45:33.054Z,98.00
2019-02-07T06:48:19.423Z,98.10
2019-02-07T06:50:56.306Z,98.70
2019-02-07T06:53:45.763Z,98.10
2019-02-07T06:56:29.293Z,98.80
2019-02-07T06:59:18.627Z,98.50
2019-02-07T07:01:49.971Z,98.50
2019-02-07T07:04:21.183Z,98.60
2019-02-07T07:07:04.571Z,99.00
2019-02-07T07:09:47.711Z,98.70
2019-02-07T07:12:27.930Z,98.50
2019-02-07T07:15:17.470Z,98.40
2019-02-07T07:17:51.358Z,98.70
2019-02-07T07:20:39.003Z,98.70
2019-02-07T07:23:10.791Z,98.20
2019-02-07T07:25:56.946Z,98.80
2019-02-07T07:28:34.123Z,98.90
2019-02-07T07:34:30.146Z,98.60
2019-02-07T07:37:10.202Z,99.10
2019-02-07T07:39:57.964Z,99.10
2019-02-07T07:42:31.791Z,98.80
2019-02-07T07:45:03.004Z,98.60
2019-02-07T07:47:36.051Z,98.60
2019-02-07T07:50:10.502Z,99.10
2019-02-07T07:52:57.103Z,99.20
2019-02-07T07:55:28.298Z,98.70
2019-02-07T07:58:12.086Z,99.60
2019-02-07T08:01:01.211Z,99.00
2019-02-07T08:03:32.511Z,99.10
2019-02-07T08:06:20.434Z,98.90
2019-02-07T08:11:48.343Z,99.20
2019-02-07T08:14:35.870Z,99.20
2019-02-07T08:17:07.000Z,99.00
2019-02-07T08:19:39.317Z,98.60
2019-02-07T08:22:10.687Z,99.10
2019-02-07T08:24:58.414Z,98.70
2019-02-07T08:27:32.659Z,99.00
2019-02-07T08:30:04.313Z,99.20
2019-02-07T08:32:42.312Z,99.00
2019-02-07T08:35:25.549Z,98.70
2019-02-07T08:38:12.287Z,98.70
2019-02-07T08:40:52.351Z,98.40
2019-02-07T08:43:23.952Z,99.00
2019-02-07T08:46:11.403Z,98.10
2019-02-07T08:48:45.328Z,98.10
2019-02-07T08:51:32.654Z,98.00
2019-02-07T08:54:10.334Z,98.30
2019-02-07T08:56:41.643Z,98.50
2019-02-07T08:59:18.414Z,98.50
2019-02-07T09:01:49.756Z,98.60
2019-02-07T09:04:29.770Z,98.90
2019-02-07T09:07:17.343Z,98.70
2019-02-07T09:09:54.492Z,99.00
2019-02-07T09:12:43.782Z,98.50
2019-02-07T09:15:15.089Z,98.30
2019-02-07T09:17:46.427Z,98.60
2019-02-07T09:20:29.706Z,98.50
2019-02-07T09:23:00.915Z,98.80
2019-02-07T09:25:44.381Z,98.60
2019-02-07T09:28:31.484Z,98.40
2019-02-07T09:31:18.887Z,98.30
2019-02-07T09:33:56.231Z,98.70
2019-02-07T09:36:27.589Z,98.30
2019-02-07T09:39:15.366Z,98.50
2019-02-07T09:41:46.667Z,98.50
2019-02-07T09:44:17.939Z,98.50
2019-02-07T09:46:56.412Z,98.30
2019-02-07T09:49:28.529Z,98.10
2019-02-07T09:52:08.731Z,98.60
2019-02-07T09:54:42.881Z,97.60
2019-02-07T09:57:14.395Z,97.80
2019-02-07T09:59:51.320Z,97.40
2019-02-07T10:02:22.622Z,97.10
2019-02-07T10:05:08.682Z,96.80
2019-02-07T10:07:42.981Z,95.80
2019-02-07T10:10:20.442Z,96.30
2019-02-07T10:13:07.734Z,95.50
2019-02-07T10:15:53.769Z,96.20
2019-02-07T10:18:32.855Z,96.80
2019-02-07T10:21:14.031Z,97.10
2019-02-07T10:23:46.246Z,97.60
2019-02-07T10:26:23.450Z,97.30
2019-02-07T10:29:06.867Z,96.70
2019-02-07T10:31:38.726Z,97.40
2019-02-07T10:34:15.766Z,97.50
2019-02-07T10:36:52.683Z,97.50
2019-02-07T10:39:23.902Z,97.20
2019-02-07T10:42:03.894Z,97.60
2019-02-07T10:44:47.326Z,97.80
2019-02-07T10:47:34.985Z,97.90
2019-02-07T10:50:14.210Z,97.90
2019-02-07T10:52:57.223Z,97.80
2019-02-07T10:55:40.906Z,98.10
2019-02-07T10:58:18.434Z,97.50
2019-02-07T11:01:01.347Z,97.50
2019-02-07T11:03:32.703Z,97.50
2019-02-07T11:06:10.414Z,97.60
2019-02-07T11:08:50.487Z,97.30
2019-02-07T11:11:24.102Z,96.90
2019-02-07T11:14:01.343Z,97.60
2019-02-07T11:16:45.714Z,97.30
2019-02-07T11:19:33.426Z,97.20
2019-02-07T11:22:05.233Z,97.00
2019-02-07T11:24:36.578Z,97.50
2019-02-07T11:27:20.321Z,97.20
2019-02-07T11:29:57.443Z,97.40
2019-02-07T11:32:35.288Z,97.50
2019-02-07T11:35:11.339Z,97.20
2019-02-07T11:37:51.726Z,97.10
2019-02-07T11:40:22.964Z,96.90
2019-02-07T11:42:54.234Z,97.00
2019-02-07T11:45:37.674Z,96.70
2019-02-07T11:48:15.141Z,97.20
2019-02-07T11:50:59.932Z,97.10
2019-02-07T11:53:31.138Z,97.00
2019-02-07T11:56:17.267Z,96.80
2019-02-07T11:59:06.851Z,97.00
2019-02-07T12:01:41.108Z,96.50
2019-02-07T12:04:22.843Z,96.30
2019-02-07T12:07:09.999Z,95.80
2019-02-07T12:09:41.191Z,95.80
2019-02-07T12:12:12.319Z,96.30
2019-02-07T12:14:43.611Z,96.30
2019-02-07T12:17:33.125Z,96.50
2019-02-07T12:20:21.206Z,97.00
2019-02-07T12:22:52.633Z,97.30
2019-02-07T12:25:26.970Z,96.70
2019-02-07T12:28:07.250Z,96.10
2019-02-07T12:30:47.350Z,96.00
2019-02-07T12:33:18.634Z,95.60
2019-02-07T12:35:52.502Z,95.90
2019-02-07T12:38:39.788Z,95.60
2019-02-07T12:41:13.486Z,95.30
2019-02-07T12:44:02.435Z,95.40
2019-02-07T12:46:36.164Z,94.10
2019-02-07T12:49:10.690Z,94.20
2019-02-07T12:51:41.895Z,93.20
2019-02-07T12:54:28.382Z,92.30
2019-02-07T12:57:05.399Z,91.00
2019-02-07T12:59:46.039Z,90.20
2019-02-07T13:02:33.542Z,91.10
2019-02-07T13:05:13.114Z,91.10
2019-02-07T13:07:56.698Z,91.60
2019-02-07T13:10:27.950Z,92.40
2019-02-07T13:12:59.215Z,92.70
2019-02-07T13:15:45.422Z,93.50
2019-02-07T13:18:16.630Z,93.90
2019-02-07T13:20:54.666Z,93.50
2019-02-07T13:23:42.030Z,92.90
2019-02-07T13:26:13.366Z,92.90
2019-02-07T13:28:59.370Z,84.30
2019-02-07T13:31:32.511Z,71.40
2019-02-07T13:34:03.467Z,72.40
2019-02-07T13:36:34.660Z,71.30
2019-02-07T13:39:17.786Z,71.30
2019-02-07T13:41:57.675Z,72.20
2019-02-07T13:44:34.574Z,81.10
2019-02-07T13:47:18.087Z,88.10
2019-02-07T13:50:05.555Z,90.90
2019-02-07T13:52:54.610Z,89.40
2019-02-07T13:55:26.091Z,89.50
2019-02-07T13:58:03.242Z,90.60
2019-02-07T14:00:34.470Z,90.10
2019-02-07T14:03:18.119Z,90.00
2019-02-07T14:05:55.315Z,91.00
2019-02-07T14:08:44.915Z,91.60
2019-02-07T14:11:24.614Z,91.90
2019-02-07T14:13:58.555Z,92.00
2019-02-07T14:16:36.272Z,92.00
2019-02-07T14:19:13.223Z,92.80
2019-02-07T14:21:44.459Z,92.10
2019-02-07T14:24:24.591Z,93.20
2019-02-07T14:27:14.456Z,93.00
2019-02-07T14:29:45.727Z,92.90
2019-02-07T14:32:33.198Z,93.40
2019-02-07T14:35:19.726Z,93.10
2019-02-07T14:38:09.264Z,94.10
2019-02-07T14:40:43.157Z,93.60
2019-02-07T14:43:14.456Z,93.60
2019-02-07T14:45:48.718Z,93.80
2019-02-07T14:48:25.258Z,94.40
2019-02-07T14:50:55.097Z,94.70
2019-02-07T14:53:24.799Z,96.20
2019-02-07T14:55:54.456Z,96.30
2019-02-07T14:58:24.041Z,96.50
2019-02-07T15:00:53.658Z,96.60
2019-02-07T15:03:24.226Z,96.20
2019-02-07T15:05:53.792Z,96.90
2019-02-07T15:08:23.422Z,96.80
2019-02-07T15:10:53.682Z,96.90
2019-02-07T15:13:24.514Z,96.70
2019-02-07T15:15:54.172Z,95.90
2019-02-07T15:18:24.140Z,95.60
2019-02-07T15:20:53.709Z,95.30
2019-02-07T15:23:23.559Z,95.70
2019-02-07T15:25:53.122Z,95.80
2019-02-07T15:28:22.613Z,96.20
2019-02-07T15:30:52.203Z,96.40
2019-02-07T15:33:23.075Z,96.50
2019-02-07T15:35:52.702Z,96.20
2019-02-07T15:38:23.275Z,94.60
2019-02-07T15:40:52.906Z,93.90
2019-02-07T15:43:22.714Z,94.30
2019-02-07T15:45:53.255Z,94.70
2019-02-07T15:48:23.364Z,93.90
2019-02-07T15:50:53.079Z,93.90
2019-02-07T15:53:23.356Z,92.40
2019-02-07T15:55:53.027Z,93.00
2019-02-07T15:58:24.312Z,93.10
2019-02-07T16:01:01.574Z,93.30
2019-02-07T16:03:32.849Z,93.70
2019-02-07T16:06:02.486Z,93.90
2019-02-07T16:08:32.875Z,93.80
2019-02-07T16:11:02.656Z,93.20
2019-02-07T16:13:32.370Z,93.60
2019-02-07T16:16:02.867Z,92.90
2019-02-07T16:18:32.506Z,93.20
2019-02-07T16:21:02.209Z,93.60
2019-02-07T16:23:32.718Z,93.00
2019-02-07T16:26:02.431Z,92.70
2019-02-07T16:28:32.271Z,93.60
2019-02-07T16:31:02.466Z,93.30
2019-02-07T16:33:32.034Z,93.80
2019-02-07T16:36:01.739Z,94.40
2019-02-07T16:38:31.321Z,94.10
2019-02-07T16:41:00.952Z,94.40
2019-02-07T16:43:30.694Z,94.20
2019-02-07T16:46:00.290Z,93.90
2019-02-07T16:48:29.857Z,94.00
2019-02-07T16:51:00.524Z,93.50
2019-02-07T16:53:30.249Z,93.80
2019-02-07T16:55:59.978Z,93.80
2019-02-07T16:58:29.616Z,94.50
2019-02-07T17:00:59.464Z,94.40
2019-02-07T17:03:29.059Z,94.30
2019-02-07T17:05:58.653Z,93.80
2019-02-07T17:08:28.373Z,94.10
2019-02-07T17:10:58.081Z,94.00
2019-02-07T17:13:27.661Z,94.30
2019-02-07T17:15:57.566Z,94.30
2019-02-07T17:18:27.203Z,94.60
2019-02-07T17:20:56.839Z,94.30
2019-02-07T17:23:26.497Z,94.30
2019-02-07T17:25:56.515Z,95.20
2019-02-07T17:28:26.081Z,95.20
2019-02-07T17:30:55.746Z,95.50
2019-02-07T17:33:25.469Z,95.50
2019-02-07T17:35:55.125Z,95.20
2019-02-07T17:38:24.827Z,95.10
2019-02-07T17:40:54.753Z,94.60
2019-02-07T17:43:24.323Z,94.90
2019-02-07T17:45:54.239Z,95.00
2019-02-07T17:48:24.454Z,94.60
2019-02-07T17:50:54.023Z,94.70
2019-02-07T17:53:29.790Z,95.10
2019-02-07T17:55:59.436Z,94.90
2019-02-07T17:58:29.051Z,95.10
2019-02-07T18:01:05.638Z,95.00
2019-02-07T18:03:35.516Z,95.10
2019-02-07T18:06:06.099Z,94.70
2019-02-07T18:08:36.222Z,95.00
2019-02-07T18:11:06.378Z,94.70
2019-02-07T18:13:36.214Z,94.60
2019-02-07T18:16:06.397Z,94.80
2019-02-07T18:18:36.218Z,95.20
2019-02-07T18:21:05.919Z,95.20
2019-02-07T18:23:35.499Z,95.00
2019-02-07T18:26:05.467Z,94.70
2019-02-07T18:28:35.036Z,94.40
2019-02-07T18:31:04.948Z,94.40
2019-02-07T18:33:34.689Z,94.50
2019-02-07T18:36:04.343Z,94.20
2019-02-07T18:38:33.997Z,93.90
2019-02-07T18:41:03.694Z,94.10
2019-02-07T18:43:33.327Z,94.10
2019-02-07T18:46:03.030Z,94.30
2019-02-07T18:48:32.703Z,94.10
2019-02-07T18:51:02.285Z,94.30
2019-02-07T18:53:31.917Z,94.30
2019-02-07T18:56:02.255Z,94.30
2019-02-07T18:58:31.983Z,94.20
2019-02-07T19:01:01.558Z,94.10
2019-02-07T19:03:31.263Z,94.00
2019-02-07T19:06:00.922Z,94.00
2019-02-07T19:08:30.635Z,94.10
2019-02-07T19:11:00.231Z,94.50
2019-02-07T19:13:29.806Z,94.30
2019-02-07T19:16:00.143Z,94.50
2019-02-07T19:18:29.744Z,94.50
2019-02-07T19:20:59.312Z,94.10
2019-02-07T19:23:28.945Z,94.40
2019-02-07T19:25:58.537Z,94.40
2019-02-07T19:28:28.103Z,94.30
2019-02-07T19:30:57.604Z,94.60
2019-02-07T19:33:27.210Z,94.90
2019-02-07T19:35:56.717Z,94.60
2019-02-07T19:38:26.272Z,94.60
2019-02-07T19:40:56.363Z,94.90
2019-02-07T19:43:27.035Z,94.80
2019-02-07T19:45:56.754Z,95.10
2019-02-07T19:48:26.353Z,95.10
2019-02-07T19:50:55.984Z,95.20
2019-02-07T19:53:25.551Z,95.00
2019-02-07T19:55:55.151Z,95.20
2019-02-07T19:58:24.719Z,95.30
2019-02-07T20:00:54.367Z,95.60
2019-02-07T20:03:24.143Z,95.50
2019-02-07T20:05:54.260Z,95.40
2019-02-07T20:08:23.818Z,95.30
2019-02-07T20:10:53.440Z,95.40
2019-02-07T20:13:23.025Z,95.60
2019-02-07T20:15:52.658Z,95.30
2019-02-07T20:18:22.323Z,95.40
2019-02-07T20:20:51.985Z,95.50
2019-02-07T20:23:22.122Z,95.50
2019-02-07T20:25:51.772Z,95.40
2019-02-07T20:28:21.327Z,95.30
2019-02-07T20:33:20.439Z,95.30
2019-02-07T20:35:50.071Z,95.30
2019-02-07T20:38:19.646Z,95.00
2019-02-07T20:40:50.315Z,95.10
2019-02-07T20:43:20.134Z,94.90
2019-02-07T20:45:50.157Z,95.50
2019-02-07T20:48:20.098Z,95.10
2019-02-07T20:50:49.674Z,95.10
2019-02-07T20:53:19.316Z,95.30
2019-02-07T20:55:49.546Z,95.40
2019-02-07T20:58:19.209Z,95.70
2019-02-07T21:00:48.854Z,95.60
2019-02-07T21:03:18.768Z,95.70
2019-02-07T21:05:48.373Z,95.70
2019-02-07T21:08:18.033Z,95.70
2019-02-07T21:10:47.799Z,95.80
2019-02-07T21:13:17.362Z,95.80
2019-02-07T21:15:47.002Z,95.90
2019-02-07T21:18:16.614Z,96.00
2019-02-07T21:20:46.189Z,95.90
2019-02-07T21:23:16.133Z,96.00
2019-02-07T21:25:48.633Z,95.70
2019-02-07T21:28:18.270Z,95.60
2019-02-07T21:30:47.915Z,95.80
2019-02-07T21:33:17.574Z,95.90
2019-02-07T21:35:47.286Z,96.00
2019-02-07T21:38:16.925Z,96.00
2019-02-07T21:40:46.528Z,96.00
2019-02-07T21:43:16.556Z,96.20
2019-02-07T21:45:46.280Z,96.10
2019-02-07T21:48:15.930Z,95.80
2019-02-07T21:50:45.567Z,95.80
2019-02-07T21:53:15.435Z,95.80
2019-02-07T21:55:45.251Z,95.90
2019-02-07T21:58:15.262Z,96.00
2019-02-07T22:00:46.269Z,96.00
2019-02-07T22:03:16.243Z,96.30
2019-02-07T22:05:45.883Z,96.30
2019-02-07T22:08:15.555Z,96.00
2019-02-07T22:10:45.115Z,96.00
2019-02-07T22:13:15.019Z,95.80
2019-02-07T22:15:44.700Z,95.70
2019-02-07T22:18:14.270Z,95.70
2019-02-07T22:20:43.836Z,95.70
2019-02-07T22:23:13.673Z,95.70
2019-02-07T22:25:43.357Z,95.90
2019-02-07T22:28:14.920Z,95.90
2019-02-07T22:30:44.568Z,95.80
2019-02-07T22:33:14.242Z,95.90
2019-02-07T22:35:43.893Z,96.10
2019-02-07T22:38:13.510Z,96.40
2019-02-07T22:40:43.040Z,96.50
2019-02-07T22:43:12.722Z,96.70
2019-02-07T22:45:42.389Z,96.70
2019-02-07T22:48:12.188Z,96.80
2019-02-07T22:50:41.891Z,96.80
2019-02-07T22:53:11.541Z,96.90
2019-02-07T22:55:42.389Z,96.80
2019-02-07T22:58:12.008Z,96.90
2019-02-07T23:00:54.222Z,97.00
2019-02-07T23:03:23.803Z,96.90
2019-02-07T23:05:53.478Z,97.00
2019-02-07T23:08:23.130Z,97.00
2019-02-07T23:10:52.768Z,96.90
2019-02-07T23:13:22.332Z,96.90
2019-02-07T23:15:52.019Z,96.90
2019-02-07T23:18:21.766Z,97.10
2019-02-07T23:20:51.378Z,97.20
2019-02-07T23:23:21.565Z,97.20
2019-02-07T23:25:57.315Z,97.20
2019-02-07T23:28:27.075Z,97.30
2019-02-07T23:30:56.709Z,97.30
2019-02-07T23:33:26.427Z,97.30
2019-02-07T23:35:56.162Z,97.30
2019-02-07T23:38:25.804Z,97.30
2019-02-07T23:40:55.439Z,97.20
2019-02-07T23:43:25.171Z,97.30
2019-02-07T23:45:54.811Z,97.30
2019-02-07T23:48:24.507Z,97.40
2019-02-07T23:50:54.175Z,97.50
2019-02-07T23:53:24.212Z,97.60
2019-02-07T23:55:54.025Z,97.60
2019-02-07T23:58:23.691Z,97.40
